createdAt,value
2019-05-28T00:00:18.200Z,97749.38
2019-05-28T00:02:47.714Z,97737.54
2019-05-28T00:05:17.834Z,97733.92
2019-05-28T00:07:47.579Z,97735.25
2019-05-28T00:10:17.273Z,97739.73
2019-05-28T00:12:46.986Z,97734.89
2019-05-28T00:15:17.424Z,97729.02
2019-05-28T00:17:47.313Z,97717.28
2019-05-28T00:20:17.206Z,97714.44
2019-05-28T00:22:46.727Z,97711.69
2019-05-28T00:25:16.649Z,97713.48
2019-05-28T00:27:46.392Z,97708.67
2019-05-28T00:30:20.285Z,97714.23
2019-05-28T00:32:47.619Z,97711.69
2019-05-28T00:35:17.307Z,97707.05
2019-05-28T00:37:46.928Z,97719.64
2019-05-28T00:40:16.857Z,97711.69
2019-05-28T00:42:46.781Z,97721.61
2019-05-28T00:45:17.055Z,97712.14
2019-05-28T00:47:46.776Z,97703.46
2019-05-28T00:50:18.364Z,97704.02
2019-05-28T00:52:48.082Z,97702.89
2019-05-28T00:55:17.673Z,97696.00
2019-05-28T00:57:49.584Z,97693.72
2019-05-28T01:00:36.548Z,97693.92
2019-05-28T01:02:55.812Z,97694.27
2019-05-28T01:05:25.464Z,97695.20
2019-05-28T01:07:54.999Z,97697.10
2019-05-28T01:10:24.657Z,97681.38
2019-05-28T01:12:54.441Z,97688.97
2019-05-28T01:15:23.936Z,97691.54
2019-05-28T01:17:53.763Z,97687.66
2019-05-28T01:20:23.451Z,97687.12
2019-05-28T01:22:53.076Z,97683.08
2019-05-28T01:25:22.884Z,97684.53
2019-05-28T01:27:52.373Z,97675.99
2019-05-28T01:30:22.366Z,97679.97
2019-05-28T01:32:51.998Z,97686.20
2019-05-28T01:35:21.647Z,97687.26
2019-05-28T01:37:51.320Z,97669.77
2019-05-28T01:40:23.356Z,97663.42
2019-05-28T01:42:52.457Z,97655.54
2019-05-28T01:45:22.408Z,97669.80
2019-05-28T01:47:51.946Z,97669.81
2019-05-28T01:50:21.495Z,97679.45
2019-05-28T01:52:50.953Z,97684.49
2019-05-28T01:55:20.778Z,97680.71
2019-05-28T01:57:50.356Z,97685.36
2019-05-28T02:00:21.330Z,97674.16
2019-05-28T02:02:50.980Z,97675.69
2019-05-28T02:05:20.365Z,97664.94
2019-05-28T02:07:49.746Z,97666.38
2019-05-28T02:10:20.010Z,97665.15
2019-05-28T02:12:49.805Z,97673.20
2019-05-28T02:15:19.709Z,97667.19
2019-05-28T02:17:49.428Z,97668.80
2019-05-28T02:20:19.490Z,97675.64
2019-05-28T02:22:49.366Z,97676.72
2019-05-28T02:25:19.362Z,97675.39
2019-05-28T02:27:48.980Z,97664.28
2019-05-28T02:30:19.410Z,97665.89
2019-05-28T02:32:49.191Z,97672.39
2019-05-28T02:35:18.970Z,97674.33
2019-05-28T02:37:48.534Z,97679.72
2019-05-28T02:40:18.461Z,97671.74
2019-05-28T02:42:48.082Z,97687.06
2019-05-28T02:45:18.287Z,97687.38
2019-05-28T02:47:47.751Z,97687.56
2019-05-28T02:50:18.253Z,97680.11
2019-05-28T02:52:48.743Z,97685.06
2019-05-28T02:55:18.737Z,97679.47
2019-05-28T02:57:50.278Z,97673.66
2019-05-28T03:00:20.595Z,97677.71
2019-05-28T03:02:52.560Z,97675.96
2019-05-28T03:05:22.057Z,97678.79
2019-05-28T03:07:55.661Z,97675.16
2019-05-28T03:10:59.729Z,97678.27
2019-05-28T03:13:07.304Z,97674.13
2019-05-28T03:15:39.773Z,97661.16
2019-05-28T03:18:11.517Z,97657.97
2019-05-28T03:20:42.401Z,97660.91
2019-05-28T03:23:13.243Z,97668.81
2019-05-28T03:25:43.034Z,97680.33
2019-05-28T03:28:12.941Z,97687.74
2019-05-28T03:30:42.511Z,97682.55
2019-05-28T03:33:12.334Z,97677.13
2019-05-28T03:35:43.643Z,97675.34
2019-05-28T03:38:14.218Z,97681.38
2019-05-28T03:40:44.721Z,97674.50
2019-05-28T03:43:14.312Z,97673.73
2019-05-28T03:45:44.225Z,97676.97
2019-05-28T03:48:13.809Z,97675.45
2019-05-28T03:50:43.245Z,97665.43
2019-05-28T03:53:12.863Z,97667.69
2019-05-28T03:55:42.865Z,97667.50
2019-05-28T03:58:12.358Z,97672.14
2019-05-28T04:00:42.666Z,97673.63
2019-05-28T04:03:12.264Z,97677.13
2019-05-28T04:05:41.819Z,97677.76
2019-05-28T04:08:11.489Z,97671.53
2019-05-28T04:10:42.313Z,97675.17
2019-05-28T04:13:12.291Z,97682.17
2019-05-28T04:15:41.889Z,97685.20
2019-05-28T04:18:11.510Z,97686.74
2019-05-28T04:20:41.327Z,97682.61
2019-05-28T04:23:16.747Z,97686.39
2019-05-28T04:25:46.884Z,97683.59
2019-05-28T04:28:16.372Z,97684.31
2019-05-28T04:30:46.388Z,97687.06
2019-05-28T04:33:16.059Z,97698.53
2019-05-28T04:35:45.599Z,97682.98
2019-05-28T04:38:15.076Z,97683.39
2019-05-28T04:40:44.714Z,97686.20
2019-05-28T04:43:14.217Z,97678.81
2019-05-28T04:45:43.938Z,97685.07
2019-05-28T04:48:13.662Z,97688.38
2019-05-28T04:50:43.041Z,97686.92
2019-05-28T04:53:12.916Z,97691.62
2019-05-28T04:55:42.631Z,97693.13
2019-05-28T04:58:12.121Z,97692.31
2019-05-28T05:00:41.510Z,97693.42
2019-05-28T05:03:11.166Z,97691.50
2019-05-28T05:05:40.649Z,97693.34
2019-05-28T05:08:10.410Z,97693.74
2019-05-28T05:10:40.022Z,97689.97
2019-05-28T05:13:09.600Z,97696.39
2019-05-28T05:15:39.422Z,97699.47
2019-05-28T05:18:08.888Z,97694.74
2019-05-28T05:20:38.635Z,97686.86
2019-05-28T05:23:08.273Z,97682.59
2019-05-28T05:25:37.723Z,97687.92
2019-05-28T05:28:07.251Z,97690.52
2019-05-28T05:30:37.062Z,97696.38
2019-05-28T05:33:19.359Z,97689.35
2019-05-28T05:35:38.005Z,97702.56
2019-05-28T05:38:07.613Z,97695.58
2019-05-28T05:40:37.278Z,97696.64
2019-05-28T05:43:07.761Z,97695.25
2019-05-28T05:45:37.347Z,97693.28
2019-05-28T05:48:06.949Z,97694.03
2019-05-28T05:50:36.700Z,97699.19
2019-05-28T05:53:06.484Z,97695.25
2019-05-28T05:55:36.295Z,97692.55
2019-05-28T05:58:05.827Z,97690.17
2019-05-28T06:00:35.214Z,97694.90
2019-05-28T06:03:04.911Z,97686.25
2019-05-28T06:05:34.762Z,97684.37
2019-05-28T06:08:04.661Z,97688.02
2019-05-28T06:10:34.234Z,97688.86
2019-05-28T06:13:03.944Z,97679.20
2019-05-28T06:15:33.878Z,97683.50
2019-05-28T06:18:03.821Z,97681.83
2019-05-28T06:20:33.259Z,97671.08
2019-05-28T06:23:02.782Z,97670.73
2019-05-28T06:25:32.517Z,97668.92
2019-05-28T06:28:02.307Z,97666.48
2019-05-28T06:30:32.024Z,97665.62
2019-05-28T06:33:01.627Z,97662.63
2019-05-28T06:35:31.114Z,97660.06
2019-05-28T06:38:01.005Z,97654.88
2019-05-28T06:40:30.945Z,97655.73
2019-05-28T06:43:00.779Z,97648.48
2019-05-28T06:45:30.469Z,97648.84
2019-05-28T06:48:00.203Z,97643.67
2019-05-28T06:50:29.819Z,97643.55
2019-05-28T06:52:59.505Z,97641.38
2019-05-28T06:55:28.943Z,97636.51
2019-05-28T06:57:58.390Z,97639.27
2019-05-28T07:00:28.243Z,97634.40
2019-05-28T07:02:57.843Z,97631.73
2019-05-28T07:05:27.426Z,97634.05
2019-05-28T07:07:56.915Z,97635.25
2019-05-28T07:10:26.859Z,97636.19
2019-05-28T07:12:56.616Z,97636.17
2019-05-28T07:15:26.024Z,97627.67
2019-05-28T07:17:59.390Z,97628.13
2019-05-28T07:20:26.893Z,97623.86
2019-05-28T07:22:56.414Z,97625.45
2019-05-28T07:25:26.131Z,97625.05
2019-05-28T07:28:10.401Z,97628.20
2019-05-28T07:30:27.186Z,97622.86
2019-05-28T07:32:56.922Z,97615.89
2019-05-28T07:35:26.508Z,97607.37
2019-05-28T07:37:55.992Z,97610.16
2019-05-28T07:40:31.644Z,97605.35
2019-05-28T07:42:56.737Z,97599.69
2019-05-28T07:45:26.530Z,97601.77
2019-05-28T07:47:56.283Z,97597.33
2019-05-28T07:50:25.912Z,97599.84
2019-05-28T07:52:55.373Z,97602.95
2019-05-28T07:55:25.103Z,97599.38
2019-05-28T07:57:54.708Z,97602.64
2019-05-28T08:00:37.945Z,97603.37
2019-05-28T08:03:07.552Z,97605.24
2019-05-28T08:05:37.199Z,97601.53
2019-05-28T08:08:09.490Z,97602.88
2019-05-28T08:10:39.262Z,97587.34
2019-05-28T08:13:09.213Z,97593.41
2019-05-28T08:15:39.073Z,97592.88
2019-05-28T08:18:08.918Z,97586.84
2019-05-28T08:20:38.354Z,97586.53
2019-05-28T08:23:07.824Z,97590.49
2019-05-28T08:25:46.988Z,97583.54
2019-05-28T08:28:19.261Z,97578.03
2019-05-28T08:30:40.755Z,97576.92
2019-05-28T08:33:10.387Z,97568.11
2019-05-28T08:35:40.233Z,97559.83
2019-05-28T08:38:09.899Z,97565.80
2019-05-28T08:40:39.391Z,97566.88
2019-05-28T08:43:09.403Z,97561.31
2019-05-28T08:45:42.502Z,97560.80
2019-05-28T08:48:10.509Z,97550.02
2019-05-28T08:50:42.602Z,97561.20
2019-05-28T08:53:12.607Z,97560.94
2019-05-28T08:55:42.000Z,97552.41
2019-05-28T08:58:12.058Z,97549.91
2019-05-28T09:00:42.915Z,97552.77
2019-05-28T09:03:12.806Z,97558.47
2019-05-28T09:05:42.662Z,97544.12
2019-05-28T09:08:12.231Z,97539.92
2019-05-28T09:10:42.068Z,97531.73
2019-05-28T09:13:11.943Z,97527.16
2019-05-28T09:15:41.331Z,97524.62
2019-05-28T09:18:11.170Z,97518.27
2019-05-28T09:20:41.372Z,97513.31
2019-05-28T09:23:11.065Z,97498.43
2019-05-28T09:25:40.570Z,97511.69
2019-05-28T09:28:25.657Z,97499.88
2019-05-28T09:30:41.275Z,97493.50
2019-05-28T09:33:10.810Z,97487.45
2019-05-28T09:35:44.498Z,97491.72
2019-05-28T09:38:12.303Z,97498.48
2019-05-28T09:40:50.089Z,97485.08
2019-05-28T09:43:13.540Z,97478.53
2019-05-28T09:45:43.308Z,97501.74
2019-05-28T09:48:13.490Z,97480.74
2019-05-28T09:50:42.875Z,97470.69
2019-05-28T09:53:12.448Z,97464.22
2019-05-28T09:55:42.075Z,97477.08
2019-05-28T09:58:11.636Z,97477.56
2019-05-28T10:00:56.620Z,97462.42
2019-05-28T10:03:13.275Z,97467.66
2019-05-28T10:05:58.246Z,97456.03
2019-05-28T10:08:13.956Z,97452.96
2019-05-28T10:10:43.897Z,97461.16
2019-05-28T10:13:13.698Z,97446.52
2019-05-28T10:15:43.201Z,97443.80
2019-05-28T10:18:12.581Z,97447.79
2019-05-28T10:20:42.413Z,97441.88
2019-05-28T10:23:12.126Z,97428.79
2019-05-28T10:25:41.828Z,97425.96
2019-05-28T10:28:11.479Z,97429.83
2019-05-28T10:30:41.460Z,97428.36
2019-05-28T10:33:11.373Z,97427.44
2019-05-28T10:35:40.967Z,97417.32
2019-05-28T10:38:15.751Z,97412.13
2019-05-28T10:40:41.918Z,97407.10
2019-05-28T10:43:11.306Z,97402.22
2019-05-28T10:45:41.121Z,97397.54
2019-05-28T10:48:10.779Z,97388.40
2019-05-28T10:50:40.234Z,97382.24
2019-05-28T10:53:09.847Z,97384.84
2019-05-28T10:55:39.838Z,97384.16
2019-05-28T10:58:09.645Z,97375.36
2019-05-28T11:00:39.353Z,97371.15
2019-05-28T11:03:09.202Z,97373.50
2019-05-28T11:05:38.751Z,97377.46
2019-05-28T11:08:08.442Z,97375.08
2019-05-28T11:10:37.842Z,97364.92
2019-05-28T11:13:07.397Z,97359.42
2019-05-28T11:15:37.336Z,97349.23
2019-05-28T11:18:06.934Z,97346.25
2019-05-28T11:20:36.872Z,97350.94
2019-05-28T11:23:06.606Z,97348.36
2019-05-28T11:25:36.152Z,97335.44
2019-05-28T11:28:05.857Z,97327.75
2019-05-28T11:30:35.445Z,97324.29
2019-05-28T11:33:05.301Z,97318.94
2019-05-28T11:35:34.800Z,97318.00
2019-05-28T11:38:04.597Z,97316.92
2019-05-28T11:40:34.433Z,97306.80
2019-05-28T11:43:04.671Z,97301.66
2019-05-28T11:45:35.248Z,97314.45
2019-05-28T11:48:05.123Z,97310.35
2019-05-28T11:50:35.189Z,97309.12
2019-05-28T11:53:05.233Z,97299.34
2019-05-28T11:55:34.827Z,97300.70
2019-05-28T11:58:04.569Z,97291.71
2019-05-28T12:00:34.535Z,97285.98
2019-05-28T12:03:04.242Z,97286.27
2019-05-28T12:05:33.869Z,97289.95
2019-05-28T12:08:03.707Z,97286.05
2019-05-28T12:10:33.084Z,97285.74
2019-05-28T12:13:02.675Z,97284.06
2019-05-28T12:15:32.543Z,97272.26
2019-05-28T12:18:02.325Z,97253.23
2019-05-28T12:20:33.427Z,97255.29
2019-05-28T12:23:11.298Z,97253.72
2019-05-28T12:25:34.720Z,97246.01
2019-05-28T12:28:04.301Z,97246.46
2019-05-28T12:30:33.923Z,97246.33
2019-05-28T12:33:03.876Z,97237.75
2019-05-28T12:35:33.833Z,97236.59
2019-05-28T12:38:03.470Z,97235.61
2019-05-28T12:40:46.946Z,97235.45
2019-05-28T12:43:04.752Z,97231.04
2019-05-28T12:45:36.128Z,97216.16
2019-05-28T12:48:11.750Z,97213.34
2019-05-28T12:50:37.585Z,97209.34
2019-05-28T12:53:07.067Z,97213.28
2019-05-28T12:55:36.525Z,97206.36
2019-05-28T12:58:06.143Z,97200.23
2019-05-28T13:00:36.573Z,97200.70
2019-05-28T13:03:06.522Z,97199.22
2019-05-28T13:05:36.388Z,97188.98
2019-05-28T13:08:09.085Z,97185.47
2019-05-28T13:10:37.518Z,97175.55
2019-05-28T13:13:07.369Z,97164.72
2019-05-28T13:15:41.812Z,97160.16
2019-05-28T13:18:08.323Z,97157.62
2019-05-28T13:20:37.967Z,97160.59
2019-05-28T13:23:07.747Z,97150.95
2019-05-28T13:25:37.292Z,97146.95
2019-05-28T13:28:06.837Z,97150.37
2019-05-28T13:30:36.728Z,97139.16
2019-05-28T13:33:06.428Z,97135.13
2019-05-28T13:35:35.998Z,97136.55
2019-05-28T13:38:23.538Z,97128.75
2019-05-28T13:40:37.076Z,97124.00
2019-05-28T13:43:06.797Z,97113.53
2019-05-28T13:45:36.450Z,97118.01
2019-05-28T13:48:06.296Z,97122.55
2019-05-28T13:50:35.977Z,97119.54
2019-05-28T13:53:05.878Z,97116.66
2019-05-28T13:55:35.329Z,97113.13
2019-05-28T13:58:05.231Z,97109.64
2019-05-28T14:00:35.043Z,97107.21
2019-05-28T14:03:05.315Z,97105.42
2019-05-28T14:05:35.624Z,97103.66
2019-05-28T14:08:05.633Z,97099.22
2019-05-28T14:10:35.024Z,97085.24
2019-05-28T14:13:04.690Z,97081.35
2019-05-28T14:15:34.496Z,97071.00
2019-05-28T14:18:04.433Z,97066.56
2019-05-28T14:20:34.106Z,97067.98
2019-05-28T14:23:03.813Z,97059.41
2019-05-28T14:25:33.350Z,97056.55
2019-05-28T14:28:03.046Z,97053.45
2019-05-28T14:30:33.140Z,97052.16
2019-05-28T14:33:02.770Z,97038.12
2019-05-28T14:35:32.401Z,97033.48
2019-05-28T14:38:02.172Z,97039.14
2019-05-28T14:40:32.766Z,97032.44
2019-05-28T14:43:02.988Z,97032.36
2019-05-28T14:45:32.420Z,97029.46
2019-05-28T14:48:01.807Z,97016.08
2019-05-28T14:50:31.381Z,97023.50
2019-05-28T14:53:00.873Z,97015.66
2019-05-28T14:55:30.322Z,97011.34
2019-05-28T14:57:59.838Z,97009.14
2019-05-28T15:00:29.736Z,97006.90
2019-05-28T15:02:59.419Z,96998.63
2019-05-28T15:05:28.965Z,96999.73
2019-05-28T15:07:58.439Z,97001.33
2019-05-28T15:10:28.402Z,96999.20
2019-05-28T15:12:57.899Z,96996.98
2019-05-28T15:15:35.867Z,96999.27
2019-05-28T15:17:59.127Z,96994.25
2019-05-28T15:20:28.782Z,96997.58
2019-05-28T15:22:58.215Z,96993.34
2019-05-28T15:25:27.706Z,96988.20
2019-05-28T15:27:57.593Z,96995.78
2019-05-28T15:30:27.361Z,96994.08
2019-05-28T15:32:56.996Z,96987.16
2019-05-28T15:35:26.619Z,96988.18
2019-05-28T15:37:56.104Z,96986.67
2019-05-28T15:40:25.585Z,96981.88
2019-05-28T15:43:05.493Z,96983.09
2019-05-28T15:45:26.596Z,96980.02
2019-05-28T15:47:56.274Z,96976.96
2019-05-28T15:50:26.001Z,96980.89
2019-05-28T15:52:58.685Z,96982.53
2019-05-28T15:55:27.071Z,96984.47
2019-05-28T15:57:56.622Z,96988.92
2019-05-28T16:00:27.308Z,96978.44
2019-05-28T16:02:56.798Z,96981.06
2019-05-28T16:05:26.367Z,96981.77
2019-05-28T16:07:55.878Z,96975.70
2019-05-28T16:10:25.356Z,96975.70
2019-05-28T16:12:55.070Z,96981.11
2019-05-28T16:15:24.592Z,96986.75
2019-05-28T16:17:54.207Z,96986.16
2019-05-28T16:20:23.967Z,96979.36
2019-05-28T16:22:53.742Z,96988.14
2019-05-28T16:25:23.450Z,96986.54
2019-05-28T16:27:53.210Z,96996.71
2019-05-28T16:30:23.183Z,96999.50
2019-05-28T16:32:52.902Z,96997.61
2019-05-28T16:35:22.753Z,97003.42
2019-05-28T16:37:52.601Z,97002.58
2019-05-28T16:40:22.401Z,96994.33
2019-05-28T16:42:51.998Z,97003.82
2019-05-28T16:45:24.551Z,97004.22
2019-05-28T16:47:54.527Z,97008.16
2019-05-28T16:50:23.982Z,97005.50
2019-05-28T16:52:53.830Z,97011.64
2019-05-28T16:55:23.333Z,97011.53
2019-05-28T16:57:52.839Z,97012.19
2019-05-28T17:00:22.241Z,97020.16
2019-05-28T17:02:51.851Z,97019.86
2019-05-28T17:05:21.618Z,97014.52
2019-05-28T17:07:51.440Z,97016.92
2019-05-28T17:10:32.198Z,97017.78
2019-05-28T17:12:52.089Z,97015.98
2019-05-28T17:15:22.166Z,97017.17
2019-05-28T17:17:51.734Z,97022.25
2019-05-28T17:20:21.371Z,97017.05
2019-05-28T17:22:51.160Z,97026.98
2019-05-28T17:25:20.760Z,97025.85
2019-05-28T17:27:50.250Z,97021.14
2019-05-28T17:30:24.038Z,97024.02
2019-05-28T17:32:51.741Z,97028.41
2019-05-28T17:35:21.697Z,97034.81
2019-05-28T17:37:51.135Z,97028.79
2019-05-28T17:40:22.388Z,97036.36
2019-05-28T17:42:52.351Z,97037.73
2019-05-28T17:45:23.534Z,97037.55
2019-05-28T17:47:53.054Z,97029.13
2019-05-28T17:50:23.086Z,97033.50
2019-05-28T17:52:52.836Z,97037.20
2019-05-28T17:55:22.602Z,97035.37
2019-05-28T17:57:52.455Z,97032.84
2019-05-28T18:00:21.870Z,97035.53
2019-05-28T18:02:51.265Z,97033.53
2019-05-28T18:05:20.845Z,97032.86
2019-05-28T18:07:50.685Z,97034.02
2019-05-28T18:10:20.824Z,97035.20
2019-05-28T18:12:50.454Z,97040.22
2019-05-28T18:15:20.259Z,97038.50
2019-05-28T18:17:50.026Z,97043.87
2019-05-28T18:20:20.283Z,97043.54
2019-05-28T18:22:52.087Z,97043.36
2019-05-28T18:25:21.915Z,97049.57
2019-05-28T18:27:51.727Z,97052.41
2019-05-28T18:30:22.190Z,97061.30
2019-05-28T18:32:51.593Z,97062.29
2019-05-28T18:35:21.223Z,97064.63
2019-05-28T18:37:50.852Z,97061.75
2019-05-28T18:40:22.105Z,97070.47
2019-05-28T18:42:51.534Z,97073.81
2019-05-28T18:45:21.152Z,97078.86
2019-05-28T18:47:51.155Z,97079.98
2019-05-28T18:50:20.547Z,97083.30
2019-05-28T18:52:50.566Z,97090.31
2019-05-28T18:55:23.462Z,97090.94
2019-05-28T18:57:51.979Z,97095.61
2019-05-28T19:00:21.871Z,97098.06
2019-05-28T19:02:51.698Z,97094.20
2019-05-28T19:05:21.285Z,97097.22
2019-05-28T19:07:50.950Z,97098.52
2019-05-28T19:10:20.613Z,97101.53
2019-05-28T19:12:50.322Z,97106.37
2019-05-28T19:15:20.059Z,97107.95
2019-05-28T19:17:49.637Z,97107.74
2019-05-28T19:20:19.563Z,97103.88
2019-05-28T19:22:49.406Z,97093.20
2019-05-28T19:25:19.266Z,97096.61
2019-05-28T19:27:48.660Z,97104.34
2019-05-28T19:30:28.659Z,97109.86
2019-05-28T19:32:58.589Z,97114.29
2019-05-28T19:35:28.133Z,97105.27
2019-05-28T19:37:58.248Z,97100.55
2019-05-28T19:40:38.646Z,97104.82
2019-05-28T19:43:08.632Z,97098.97
2019-05-28T19:45:38.664Z,97093.48
2019-05-28T19:48:08.234Z,97099.86
2019-05-28T19:50:37.975Z,97098.23
2019-05-28T19:53:07.788Z,97101.60
2019-05-28T19:55:37.370Z,97093.72
2019-05-28T19:58:07.563Z,97091.27
2019-05-28T20:00:36.928Z,97095.26
2019-05-28T20:03:06.675Z,97101.28
2019-05-28T20:05:36.462Z,97110.67
2019-05-28T20:08:06.290Z,97106.16
2019-05-28T20:10:35.849Z,97110.14
2019-05-28T20:13:05.412Z,97112.80
2019-05-28T20:15:35.029Z,97108.56
2019-05-28T20:18:04.962Z,97117.59
2019-05-28T20:20:34.455Z,97118.94
2019-05-28T20:23:04.271Z,97115.39
2019-05-28T20:25:34.101Z,97118.60
2019-05-28T20:28:04.031Z,97115.55
2019-05-28T20:30:33.284Z,97116.16
2019-05-28T20:33:03.201Z,97123.84
2019-05-28T20:35:33.036Z,97124.45
2019-05-28T20:38:07.234Z,97117.38
2019-05-28T20:40:33.990Z,97137.61
2019-05-28T20:43:04.075Z,97139.11
2019-05-28T20:45:33.691Z,97127.52
2019-05-28T20:48:04.497Z,97132.67
2019-05-28T20:50:34.502Z,97140.56
2019-05-28T20:53:04.262Z,97136.69
2019-05-28T20:55:34.072Z,97132.51
2019-05-28T20:58:03.665Z,97145.70
2019-05-28T21:00:33.549Z,97142.31
2019-05-28T21:03:03.047Z,97139.32
2019-05-28T21:05:32.482Z,97141.30
2019-05-28T21:08:02.078Z,97141.56
2019-05-28T21:10:31.550Z,97145.86
2019-05-28T21:13:01.271Z,97147.36
2019-05-28T21:15:30.716Z,97143.16
2019-05-28T21:18:00.442Z,97142.03
2019-05-28T21:20:30.026Z,97143.86
2019-05-28T21:23:00.327Z,97140.36
2019-05-28T21:25:29.920Z,97144.77
2019-05-28T21:28:00.657Z,97152.96
2019-05-28T21:30:30.311Z,97156.62
2019-05-28T21:33:00.885Z,97162.93
2019-05-28T21:35:30.653Z,97163.94
2019-05-28T21:38:01.356Z,97171.77
2019-05-28T21:40:30.979Z,97188.68
2019-05-28T21:43:07.605Z,97194.83
2019-05-28T21:45:31.667Z,97204.86
2019-05-28T21:48:01.153Z,97202.69
2019-05-28T21:50:30.630Z,97207.09
2019-05-28T21:53:01.184Z,97213.75
2019-05-28T21:55:30.796Z,97219.55
2019-05-28T21:58:00.369Z,97217.45
2019-05-28T22:00:48.898Z,97213.58
2019-05-28T22:03:18.582Z,97209.75
2019-05-28T22:05:48.098Z,97206.09
2019-05-28T22:08:17.638Z,97204.27
2019-05-28T22:10:47.255Z,97209.11
2019-05-28T22:13:22.237Z,97221.76
2019-05-28T22:15:48.397Z,97214.38
2019-05-28T22:18:17.811Z,97223.53
2019-05-28T22:20:47.446Z,97221.53
2019-05-28T22:23:17.058Z,97228.39
2019-05-28T22:25:46.705Z,97226.20
2019-05-28T22:28:16.230Z,97226.55
2019-05-28T22:30:45.964Z,97229.84
2019-05-28T22:33:15.667Z,97235.23
2019-05-28T22:35:45.365Z,97236.84
2019-05-28T22:38:14.833Z,97239.38
2019-05-28T22:40:44.554Z,97241.56
2019-05-28T22:43:14.153Z,97240.23
2019-05-28T22:45:43.911Z,97246.34
2019-05-28T22:48:17.226Z,97239.56
2019-05-28T22:53:13.128Z,97246.43
2019-05-28T22:55:42.997Z,97241.56
2019-05-28T22:58:12.766Z,97239.89
2019-05-28T23:00:42.203Z,97244.86
2019-05-28T23:03:11.949Z,97238.08
2019-05-28T23:05:41.386Z,97243.57
2019-05-28T23:08:11.284Z,97245.20
2019-05-28T23:10:40.702Z,97241.91
2019-05-28T23:13:11.132Z,97248.53
2019-05-28T23:15:40.887Z,97247.69
2019-05-28T23:18:11.024Z,97250.16
2019-05-28T23:20:40.530Z,97251.59
2019-05-28T23:23:11.354Z,97246.53
2019-05-28T23:25:41.186Z,97249.00
2019-05-28T23:28:11.768Z,97249.00
2019-05-28T23:30:41.425Z,97252.39
2019-05-28T23:33:13.953Z,97254.97
2019-05-28T23:35:43.008Z,97263.19
2019-05-28T23:38:13.198Z,97262.05
2019-05-28T23:40:42.738Z,97260.42
2019-05-28T23:43:13.725Z,97259.67
2019-05-28T23:45:43.452Z,97262.19
2019-05-28T23:48:16.840Z,97266.84
2019-05-28T23:50:44.604Z,97276.02
2019-05-28T23:53:14.483Z,97265.50
2019-05-28T23:55:43.887Z,97270.70
2019-05-28T23:58:13.900Z,97272.96
